sensor_id;sensor_type;location;lat;lon;timestamp;pressure;altitude;pressure_sealevel;temperature;humidity
55538;BME280;41383;51.418;7.286;2023-07-28T00:01:26;98825.34;;;18.01;100.00
55538;BME280;41383;51.418;7.286;2023-07-28T00:03:51;98827.63;;;17.99;99.12
55538;BME280;41383;51.418;7.286;2023-07-28T00:06:16;98826.94;;;18.02;100.00
55538;BME280;41383;51.418;7.286;2023-07-28T00:08:42;98827.88;;;18.06;99.51
55538;BME280;41383;51.418;7.286;2023-07-28T00:11:11;98820.78;;;18.05;99.73
55538;BME280;41383;51.418;7.286;2023-07-28T00:13:38;98823.72;;;18.00;99.85
55538;BME280;41383;51.418;7.286;2023-07-28T00:16:04;98821.44;;;18.02;100.00
55538;BME280;41383;51.418;7.286;2023-07-28T00:18:29;98823.06;;;18.03;99.97
55538;BME280;41383;51.418;7.286;2023-07-28T00:20:54;98820.78;;;18.05;100.00
55538;BME280;41383;51.418;7.286;2023-07-28T00:23:20;98821.44;;;18.02;99.23
55538;BME280;41383;51.418;7.286;2023-07-28T00:25:45;98832.47;;;18.02;100.00
55538;BME280;41383;51.418;7.286;2023-07-28T00:28:10;98819.16;;;18.04;99.60
55538;BME280;41383;51.418;7.286;2023-07-28T00:30:36;98822.13;;;17.99;100.00
55538;BME280;41383;51.418;7.286;2023-07-28T00:33:01;98822.66;;;17.92;100.00
55538;BME280;41383;51.418;7.286;2023-07-28T00:35:26;98825.75;;;17.91;100.00
55538;BME280;41383;51.418;7.286;2023-07-28T00:37:51;98815.88;;;17.90;100.00
55538;BME280;41383;51.418;7.286;2023-07-28T00:40:17;98821.66;;;17.97;100.00
55538;BME280;41383;51.418;7.286;2023-07-28T00:42:42;98813.19;;;17.81;100.00
55538;BME280;41383;51.418;7.286;2023-07-28T00:45:08;98813.06;;;17.77;100.00
55538;BME280;41383;51.418;7.286;2023-07-28T00:47:34;98811.25;;;17.81;100.00
55538;BME280;41383;51.418;7.286;2023-07-28T00:49:59;98817.72;;;17.85;100.00
55538;BME280;41383;51.418;7.286;2023-07-28T00:52:24;98820.50;;;17.98;100.00
55538;BME280;41383;51.418;7.286;2023-07-28T00:54:50;98818.22;;;18.00;100.00
55538;BME280;41383;51.418;7.286;2023-07-28T00:57:15;98825.47;;;18.05;100.00
55538;BME280;41383;51.418;7.286;2023-07-28T00:59:41;98813.63;;;18.04;100.00
55538;BME280;41383;51.418;7.286;2023-07-28T01:02:06;98818.69;;;18.02;100.00
55538;BME280;41383;51.418;7.286;2023-07-28T01:04:32;98826.38;;;18.18;100.00
55538;BME280;41383;51.418;7.286;2023-07-28T01:07:05;98822.53;;;18.10;99.88
55538;BME280;41383;51.418;7.286;2023-07-28T01:09:45;98814.78;;;18.03;100.00
55538;BME280;41383;51.418;7.286;2023-07-28T01:12:11;98808.81;;;18.01;100.00
55538;BME280;41383;51.418;7.286;2023-07-28T01:14:37;98808.00;;;18.01;100.00
55538;BME280;41383;51.418;7.286;2023-07-28T01:17:02;98813.59;;;17.92;100.00
55538;BME280;41383;51.418;7.286;2023-07-28T01:19:28;98813.38;;;17.97;100.00
55538;BME280;41383;51.418;7.286;2023-07-28T01:22:03;98815.66;;;17.95;100.00
55538;BME280;41383;51.418;7.286;2023-07-28T01:24:49;98812.50;;;18.05;100.00
55538;BME280;41383;51.418;7.286;2023-07-28T01:27:15;98811.34;;;18.06;100.00
55538;BME280;41383;51.418;7.286;2023-07-28T01:29:41;98815.31;;;17.96;100.00
55538;BME280;41383;51.418;7.286;2023-07-28T01:32:06;98812.84;;;17.82;100.00
55538;BME280;41383;51.418;7.286;2023-07-28T01:34:32;98810.38;;;17.90;100.00
55538;BME280;41383;51.418;7.286;2023-07-28T01:36:57;98806.34;;;17.87;100.00
55538;BME280;41383;51.418;7.286;2023-07-28T01:39:22;98805.34;;;17.92;100.00
55538;BME280;41383;51.418;7.286;2023-07-28T01:41:48;98805.97;;;18.10;100.00
55538;BME280;41383;51.418;7.286;2023-07-28T01:44:13;98812.50;;;18.05;100.00
55538;BME280;41383;51.418;7.286;2023-07-28T01:46:38;98810.94;;;18.17;100.00
55538;BME280;41383;51.418;7.286;2023-07-28T01:49:04;98799.19;;;18.07;100.00
55538;BME280;41383;51.418;7.286;2023-07-28T01:51:29;98809.34;;;17.94;100.00
55538;BME280;41383;51.418;7.286;2023-07-28T01:53:55;98809.44;;;17.85;100.00
55538;BME280;41383;51.418;7.286;2023-07-28T01:56:20;98801.00;;;18.03;100.00
55538;BME280;41383;51.418;7.286;2023-07-28T01:58:45;98810.88;;;18.04;100.00
55538;BME280;41383;51.418;7.286;2023-07-28T02:01:12;98812.28;;;18.11;100.00
55538;BME280;41383;51.418;7.286;2023-07-28T02:03:38;98805.03;;;18.06;100.00
55538;BME280;41383;51.418;7.286;2023-07-28T02:06:03;98808.13;;;18.04;100.00
55538;BME280;41383;51.418;7.286;2023-07-28T02:08:28;98811.56;;;18.01;100.00
55538;BME280;41383;51.418;7.286;2023-07-28T02:10:54;98811.44;;;17.97;100.00
55538;BME280;41383;51.418;7.286;2023-07-28T02:13:19;98811.84;;;17.87;100.00
55538;BME280;41383;51.418;7.286;2023-07-28T02:15:44;98815.66;;;17.95;100.00
55538;BME280;41383;51.418;7.286;2023-07-28T02:18:10;98805.59;;;17.99;100.00
55538;BME280;41383;51.418;7.286;2023-07-28T02:20:35;98813.09;;;18.11;100.00
55538;BME280;41383;51.418;7.286;2023-07-28T02:23:01;98812.44;;;18.14;100.00
55538;BME280;41383;51.418;7.286;2023-07-28T02:25:26;98822.09;;;18.20;99.85
55538;BME280;41383;51.418;7.286;2023-07-28T02:27:52;98816.59;;;18.20;100.00
55538;BME280;41383;51.418;7.286;2023-07-28T02:30:17;98815.66;;;18.16;99.83
55538;BME280;41383;51.418;7.286;2023-07-28T02:32:42;98818.09;;;18.18;100.00
55538;BME280;41383;51.418;7.286;2023-07-28T02:35:08;98812.81;;;18.25;99.82
55538;BME280;41383;51.418;7.286;2023-07-28T02:37:33;98813.72;;;18.17;99.91
55538;BME280;41383;51.418;7.286;2023-07-28T02:39:58;98819.69;;;18.19;100.00
55538;BME280;41383;51.418;7.286;2023-07-28T02:42:24;98820.50;;;18.19;100.00
55538;BME280;41383;51.418;7.286;2023-07-28T02:44:50;98824.25;;;18.15;100.00
55538;BME280;41383;51.418;7.286;2023-07-28T02:47:15;98823.72;;;18.00;100.00
55538;BME280;41383;51.418;7.286;2023-07-28T02:49:41;98822.84;;;18.08;100.00
55538;BME280;41383;51.418;7.286;2023-07-28T02:52:07;98833.00;;;18.17;100.00
55538;BME280;41383;51.418;7.286;2023-07-28T02:54:32;98831.66;;;18.23;100.00
55538;BME280;41383;51.418;7.286;2023-07-28T02:56:58;98828.72;;;18.28;99.42
55538;BME280;41383;51.418;7.286;2023-07-28T02:59:23;98838.19;;;18.18;99.47
55538;BME280;41383;51.418;7.286;2023-07-28T03:01:48;98837.44;;;18.09;100.00
55538;BME280;41383;51.418;7.286;2023-07-28T03:04:17;98842.28;;;18.12;100.00
55538;BME280;41383;51.418;7.286;2023-07-28T03:06:42;98838.34;;;18.22;100.00
55538;BME280;41383;51.418;7.286;2023-07-28T03:09:07;98837.06;;;18.19;100.00
55538;BME280;41383;51.418;7.286;2023-07-28T03:11:33;98841.09;;;18.22;100.00
55538;BME280;41383;51.418;7.286;2023-07-28T03:13:58;98842.81;;;18.27;99.72
55538;BME280;41383;51.418;7.286;2023-07-28T03:16:23;98839.53;;;18.12;99.66
55538;BME280;41383;51.418;7.286;2023-07-28T03:18:49;98843.63;;;18.27;100.00
55538;BME280;41383;51.418;7.286;2023-07-28T03:21:15;98841.41;;;18.20;99.76
55538;BME280;41383;51.418;7.286;2023-07-28T03:23:40;98844.53;;;18.19;100.00
55538;BME280;41383;51.418;7.286;2023-07-28T03:26:05;98852.97;;;18.14;99.85
55538;BME280;41383;51.418;7.286;2023-07-28T03:28:30;98847.66;;;18.30;100.00
55538;BME280;41383;51.418;7.286;2023-07-28T03:30:56;98851.56;;;18.29;99.21
55538;BME280;41383;51.418;7.286;2023-07-28T03:33:21;98848.03;;;18.28;99.88
55538;BME280;41383;51.418;7.286;2023-07-28T03:35:46;98850.31;;;18.39;99.71
55538;BME280;41383;51.418;7.286;2023-07-28T03:38:12;98857.22;;;18.33;99.62
55538;BME280;41383;51.418;7.286;2023-07-28T03:40:37;98855.00;;;18.26;99.96
55538;BME280;41383;51.418;7.286;2023-07-28T03:43:02;98848.81;;;18.29;100.00
55538;BME280;41383;51.418;7.286;2023-07-28T03:45:28;98851.13;;;18.39;99.64
55538;BME280;41383;51.418;7.286;2023-07-28T03:47:54;98862.06;;;18.36;99.61
55538;BME280;41383;51.418;7.286;2023-07-28T03:50:19;98857.47;;;18.40;99.24
55538;BME280;41383;51.418;7.286;2023-07-28T03:52:44;98855.06;;;18.38;99.64
55538;BME280;41383;51.418;7.286;2023-07-28T03:55:09;98864.28;;;18.42;99.41
55538;BME280;41383;51.418;7.286;2023-07-28T03:57:35;98858.19;;;18.49;98.94
55538;BME280;41383;51.418;7.286;2023-07-28T04:00:00;98861.19;;;18.57;98.94
55538;BME280;41383;51.418;7.286;2023-07-28T04:02:25;98860.50;;;18.60;98.33
55538;BME280;41383;51.418;7.286;2023-07-28T04:04:55;98874.53;;;18.54;98.69
55538;BME280;41383;51.418;7.286;2023-07-28T04:07:20;98859.56;;;18.55;98.33
55538;BME280;41383;51.418;7.286;2023-07-28T04:09:45;98869.00;;;18.54;98.78
55538;BME280;41383;51.418;7.286;2023-07-28T04:12:10;98866.72;;;18.57;98.49
55538;BME280;41383;51.418;7.286;2023-07-28T04:14:36;98870.16;;;18.53;98.64
55538;BME280;41383;51.418;7.286;2023-07-28T04:17:01;98864.16;;;18.51;98.87
55538;BME280;41383;51.418;7.286;2023-07-28T04:19:27;98860.75;;;18.54;98.91
55538;BME280;41383;51.418;7.286;2023-07-28T04:21:54;98863.63;;;18.58;98.93
55538;BME280;41383;51.418;7.286;2023-07-28T04:24:19;98857.75;;;18.60;98.57
55538;BME280;41383;51.418;7.286;2023-07-28T04:26:44;98865.78;;;18.52;98.78
55538;BME280;41383;51.418;7.286;2023-07-28T04:29:13;98872.72;;;18.59;98.95
55538;BME280;41383;51.418;7.286;2023-07-28T04:31:39;98874.09;;;18.65;98.72
55538;BME280;41383;51.418;7.286;2023-07-28T04:34:04;98879.25;;;18.54;98.84
55538;BME280;41383;51.418;7.286;2023-07-28T04:36:29;98869.47;;;18.57;98.94
55538;BME280;41383;51.418;7.286;2023-07-28T04:38:54;98868.31;;;18.58;98.87
55538;BME280;41383;51.418;7.286;2023-07-28T04:41:20;98872.13;;;18.53;99.36
55538;BME280;41383;51.418;7.286;2023-07-28T04:43:46;98879.13;;;18.50;99.75
55538;BME280;41383;51.418;7.286;2023-07-28T04:46:11;98884.41;;;18.55;99.60
55538;BME280;41383;51.418;7.286;2023-07-28T04:48:36;98878.53;;;18.57;99.03
55538;BME280;41383;51.418;7.286;2023-07-28T04:51:02;98885.34;;;18.60;99.58
55538;BME280;41383;51.418;7.286;2023-07-28T04:53:27;98889.59;;;18.57;99.95
55538;BME280;41383;51.418;7.286;2023-07-28T04:55:52;98894.78;;;18.59;99.65
55538;BME280;41383;51.418;7.286;2023-07-28T04:58:17;98889.97;;;18.68;99.63
55538;BME280;41383;51.418;7.286;2023-07-28T05:00:43;98890.66;;;18.65;98.99
55538;BME280;41383;51.418;7.286;2023-07-28T05:03:08;98891.22;;;18.58;99.54
55538;BME280;41383;51.418;7.286;2023-07-28T05:05:33;98883.06;;;18.62;99.05
55538;BME280;41383;51.418;7.286;2023-07-28T05:07:59;98886.75;;;18.66;99.55
55538;BME280;41383;51.418;7.286;2023-07-28T05:10:24;98881.66;;;18.55;99.96
55538;BME280;41383;51.418;7.286;2023-07-28T05:12:49;98888.69;;;18.53;100.00
55538;BME280;41383;51.418;7.286;2023-07-28T05:15:15;98889.03;;;18.64;100.00
55538;BME280;41383;51.418;7.286;2023-07-28T05:17:40;98889.16;;;18.67;99.67
55538;BME280;41383;51.418;7.286;2023-07-28T05:20:06;98888.97;;;18.73;99.06
55538;BME280;41383;51.418;7.286;2023-07-28T05:22:31;98888.56;;;18.62;99.87
55538;BME280;41383;51.418;7.286;2023-07-28T05:24:57;98894.56;;;18.64;99.73
55538;BME280;41383;51.418;7.286;2023-07-28T05:27:22;98884.44;;;18.68;100.00
55538;BME280;41383;51.418;7.286;2023-07-28T05:29:47;98897.59;;;18.84;99.52
55538;BME280;41383;51.418;7.286;2023-07-28T05:32:12;98893.13;;;18.92;98.98
55538;BME280;41383;51.418;7.286;2023-07-28T05:34:41;98898.53;;;18.88;98.88
55538;BME280;41383;51.418;7.286;2023-07-28T05:37:07;98897.63;;;18.96;98.68
55538;BME280;41383;51.418;7.286;2023-07-28T05:39:32;98903.59;;;18.98;98.21
55538;BME280;41383;51.418;7.286;2023-07-28T05:41:57;98900.50;;;19.00;98.08
55538;BME280;41383;51.418;7.286;2023-07-28T05:44:22;98901.78;;;19.02;97.77
55538;BME280;41383;51.418;7.286;2023-07-28T05:46:48;98907.53;;;18.97;98.29
55538;BME280;41383;51.418;7.286;2023-07-28T05:49:13;98908.31;;;18.98;98.56
55538;BME280;41383;51.418;7.286;2023-07-28T05:51:39;98903.81;;;18.81;99.62
55538;BME280;41383;51.418;7.286;2023-07-28T05:54:04;98905.63;;;18.76;100.00
55538;BME280;41383;51.418;7.286;2023-07-28T05:56:29;98908.94;;;18.70;100.00
55538;BME280;41383;51.418;7.286;2023-07-28T05:58:55;98912.28;;;18.63;100.00
55538;BME280;41383;51.418;7.286;2023-07-28T06:01:20;98911.38;;;18.71;100.00
55538;BME280;41383;51.418;7.286;2023-07-28T06:03:46;98921.22;;;18.60;100.00
55538;BME280;41383;51.418;7.286;2023-07-28T06:06:11;98924.25;;;18.67;100.00
55538;BME280;41383;51.418;7.286;2023-07-28T06:08:37;98918.94;;;18.62;100.00
55538;BME280;41383;51.418;7.286;2023-07-28T06:11:06;98914.47;;;18.70;100.00
55538;BME280;41383;51.418;7.286;2023-07-28T06:13:31;98922.44;;;18.84;100.00
55538;BME280;41383;51.418;7.286;2023-07-28T06:15:57;98926.41;;;18.95;100.00
55538;BME280;41383;51.418;7.286;2023-07-28T06:18:23;98930.63;;;18.93;100.00
55538;BME280;41383;51.418;7.286;2023-07-28T06:20:49;98932.50;;;19.01;100.00
55538;BME280;41383;51.418;7.286;2023-07-28T06:23:14;98930.75;;;18.96;99.96
55538;BME280;41383;51.418;7.286;2023-07-28T06:25:39;98941.34;;;18.94;99.74
55538;BME280;41383;51.418;7.286;2023-07-28T06:28:11;98944.44;;;18.93;100.00
55538;BME280;41383;51.418;7.286;2023-07-28T06:30:37;98944.34;;;19.01;100.00
55538;BME280;41383;51.418;7.286;2023-07-28T06:33:05;98942.16;;;18.95;100.00
55538;BME280;41383;51.418;7.286;2023-07-28T06:35:30;98946.03;;;18.94;100.00
55538;BME280;41383;51.418;7.286;2023-07-28T06:37:55;98950.78;;;18.93;100.00
55538;BME280;41383;51.418;7.286;2023-07-28T06:40:21;98955.84;;;18.91;100.00
55538;BME280;41383;51.418;7.286;2023-07-28T06:42:46;98946.84;;;18.94;100.00
55538;BME280;41383;51.418;7.286;2023-07-28T06:45:11;98961.94;;;18.97;100.00
55538;BME280;41383;51.418;7.286;2023-07-28T06:47:37;98959.34;;;19.13;100.00
55538;BME280;41383;51.418;7.286;2023-07-28T06:50:02;98965.09;;;19.08;99.99
55538;BME280;41383;51.418;7.286;2023-07-28T06:52:27;98960.69;;;19.07;100.00
55538;BME280;41383;51.418;7.286;2023-07-28T06:54:53;98975.59;;;19.15;100.00
55538;BME280;41383;51.418;7.286;2023-07-28T06:57:20;98967.63;;;19.13;100.00
55538;BME280;41383;51.418;7.286;2023-07-28T06:59:45;98970.53;;;19.17;100.00
55538;BME280;41383;51.418;7.286;2023-07-28T07:02:10;98977.34;;;19.19;100.00
55538;BME280;41383;51.418;7.286;2023-07-28T07:04:35;98976.88;;;19.17;100.00
55538;BME280;41383;51.418;7.286;2023-07-28T07:07:01;98977.78;;;19.21;100.00
55538;BME280;41383;51.418;7.286;2023-07-28T07:09:27;98978.63;;;19.00;100.00
55538;BME280;41383;51.418;7.286;2023-07-28T07:11:53;98972.69;;;19.11;100.00
55538;BME280;41383;51.418;7.286;2023-07-28T07:14:18;98982.38;;;19.17;100.00
55538;BME280;41383;51.418;7.286;2023-07-28T07:16:44;98995.41;;;19.29;100.00
55538;BME280;41383;51.418;7.286;2023-07-28T07:19:09;99000.59;;;19.31;100.00
55538;BME280;41383;51.418;7.286;2023-07-28T07:21:34;98991.72;;;19.25;100.00
55538;BME280;41383;51.418;7.286;2023-07-28T07:23:59;98991.50;;;19.30;100.00
55538;BME280;41383;51.418;7.286;2023-07-28T07:26:25;98993.94;;;19.44;100.00
55538;BME280;41383;51.418;7.286;2023-07-28T07:28:50;98992.13;;;19.48;99.63
55538;BME280;41383;51.418;7.286;2023-07-28T07:31:15;99003.72;;;19.42;99.19
55538;BME280;41383;51.418;7.286;2023-07-28T07:33:41;98998.31;;;19.45;100.00
55538;BME280;41383;51.418;7.286;2023-07-28T07:36:17;99008.94;;;19.56;99.83
55538;BME280;41383;51.418;7.286;2023-07-28T07:38:43;99001.91;;;19.58;99.51
55538;BME280;41383;51.418;7.286;2023-07-28T07:41:13;98995.66;;;19.36;100.00
55538;BME280;41383;51.418;7.286;2023-07-28T07:43:41;99001.53;;;19.47;100.00
55538;BME280;41383;51.418;7.286;2023-07-28T07:46:06;98998.44;;;19.49;100.00
55538;BME280;41383;51.418;7.286;2023-07-28T07:48:31;98992.91;;;19.49;99.86
55538;BME280;41383;51.418;7.286;2023-07-28T07:50:57;99006.59;;;19.45;100.00
55538;BME280;41383;51.418;7.286;2023-07-28T07:53:22;99005.00;;;19.57;99.70
55538;BME280;41383;51.418;7.286;2023-07-28T07:55:49;99002.84;;;19.63;99.03
55538;BME280;41383;51.418;7.286;2023-07-28T07:58:14;99021.13;;;19.67;99.08
55538;BME280;41383;51.418;7.286;2023-07-28T08:00:39;99008.47;;;19.66;98.97
55538;BME280;41383;51.418;7.286;2023-07-28T08:03:04;99004.78;;;19.62;99.07
55538;BME280;41383;51.418;7.286;2023-07-28T08:05:30;99008.69;;;19.86;98.51
55538;BME280;41383;51.418;7.286;2023-07-28T08:07:56;99003.41;;;19.81;98.73
55538;BME280;41383;51.418;7.286;2023-07-28T08:10:22;99005.94;;;19.86;98.33
55538;BME280;41383;51.418;7.286;2023-07-28T08:12:47;99002.69;;;19.71;99.18
55538;BME280;41383;51.418;7.286;2023-07-28T08:15:13;99015.16;;;19.78;98.50
55538;BME280;41383;51.418;7.286;2023-07-28T08:17:38;99021.13;;;19.92;98.04
55538;BME280;41383;51.418;7.286;2023-07-28T08:20:06;99020.22;;;19.88;97.53
55538;BME280;41383;51.418;7.286;2023-07-28T08:22:31;99025.28;;;19.86;97.93
55538;BME280;41383;51.418;7.286;2023-07-28T08:24:57;99032.00;;;19.85;98.23
55538;BME280;41383;51.418;7.286;2023-07-28T08:27:22;99025.75;;;19.88;98.66
55538;BME280;41383;51.418;7.286;2023-07-28T08:29:49;99022.53;;;19.99;98.74
55538;BME280;41383;51.418;7.286;2023-07-28T08:32:14;99035.44;;;19.94;97.56
55538;BME280;41383;51.418;7.286;2023-07-28T08:34:39;99032.44;;;20.12;97.62
55538;BME280;41383;51.418;7.286;2023-07-28T08:37:04;99028.25;;;20.06;97.70
55538;BME280;41383;51.418;7.286;2023-07-28T08:39:30;99036.69;;;20.10;97.62
55538;BME280;41383;51.418;7.286;2023-07-28T08:42:00;99038.31;;;20.11;97.03
55538;BME280;41383;51.418;7.286;2023-07-28T08:44:26;99039.47;;;20.10;97.07
55538;BME280;41383;51.418;7.286;2023-07-28T08:46:54;99043.88;;;20.11;97.25
55538;BME280;41383;51.418;7.286;2023-07-28T08:49:19;99045.34;;;20.21;97.04
55538;BME280;41383;51.418;7.286;2023-07-28T08:51:50;99047.16;;;20.04;96.63
55538;BME280;41383;51.418;7.286;2023-07-28T08:54:15;99046.13;;;19.96;97.23
55538;BME280;41383;51.418;7.286;2023-07-28T08:56:42;99040.16;;;19.94;96.81
55538;BME280;41383;51.418;7.286;2023-07-28T08:59:08;99046.72;;;20.02;96.98
55538;BME280;41383;51.418;7.286;2023-07-28T09:01:38;99048.81;;;20.17;96.82
55538;BME280;41383;51.418;7.286;2023-07-28T09:04:11;99059.38;;;20.28;96.51
55538;BME280;41383;51.418;7.286;2023-07-28T09:06:37;99054.22;;;20.26;95.99
55538;BME280;41383;51.418;7.286;2023-07-28T09:09:06;99057.91;;;20.30;96.11
55538;BME280;41383;51.418;7.286;2023-07-28T09:11:32;99053.63;;;20.33;96.36
55538;BME280;41383;51.418;7.286;2023-07-28T09:13:59;99064.44;;;20.38;95.91
55538;BME280;41383;51.418;7.286;2023-07-28T09:16:25;99061.47;;;20.44;95.45
55538;BME280;41383;51.418;7.286;2023-07-28T09:18:51;99066.06;;;20.52;95.02
55538;BME280;41383;51.418;7.286;2023-07-28T09:21:28;99070.47;;;20.28;94.98
55538;BME280;41383;51.418;7.286;2023-07-28T09:23:54;99067.59;;;20.24;95.48
55538;BME280;41383;51.418;7.286;2023-07-28T09:26:19;99067.69;;;20.40;95.63
55538;BME280;41383;51.418;7.286;2023-07-28T09:28:44;99060.91;;;20.38;95.47
55538;BME280;41383;51.418;7.286;2023-07-28T09:31:10;99069.38;;;20.58;94.92
55538;BME280;41383;51.418;7.286;2023-07-28T09:33:37;99070.84;;;20.68;94.15
55538;BME280;41383;51.418;7.286;2023-07-28T09:36:10;99067.28;;;20.67;94.55
55538;BME280;41383;51.418;7.286;2023-07-28T09:38:41;99068.00;;;20.64;94.56
55538;BME280;41383;51.418;7.286;2023-07-28T09:41:09;99065.31;;;20.68;94.18
55538;BME280;41383;51.418;7.286;2023-07-28T09:43:39;99069.97;;;20.51;94.31
55538;BME280;41383;51.418;7.286;2023-07-28T09:46:07;99068.03;;;20.39;94.12
55538;BME280;41383;51.418;7.286;2023-07-28T09:48:33;99065.19;;;20.23;94.59
55538;BME280;41383;51.418;7.286;2023-07-28T09:51:04;99064.25;;;20.31;95.09
55538;BME280;41383;51.418;7.286;2023-07-28T09:53:35;99055.94;;;20.31;95.80
55538;BME280;41383;51.418;7.286;2023-07-28T09:56:06;99069.03;;;20.59;95.48
55538;BME280;41383;51.418;7.286;2023-07-28T09:58:33;99058.03;;;20.75;94.24
55538;BME280;41383;51.418;7.286;2023-07-28T10:01:02;99061.44;;;20.97;93.87
55538;BME280;41383;51.418;7.286;2023-07-28T10:03:31;99066.72;;;21.03;93.48
55538;BME280;41383;51.418;7.286;2023-07-28T10:05:57;99056.41;;;21.32;92.41
55538;BME280;41383;51.418;7.286;2023-07-28T10:08:23;99066.78;;;21.19;91.60
55538;BME280;41383;51.418;7.286;2023-07-28T10:10:48;99070.22;;;21.16;91.53
55538;BME280;41383;51.418;7.286;2023-07-28T10:13:21;99074.41;;;21.09;91.08
55538;BME280;41383;51.418;7.286;2023-07-28T10:15:46;99073.78;;;21.00;90.83
55538;BME280;41383;51.418;7.286;2023-07-28T10:18:13;99083.47;;;20.94;91.65
55538;BME280;41383;51.418;7.286;2023-07-28T10:20:40;99084.44;;;21.14;91.19
55538;BME280;41383;51.418;7.286;2023-07-28T10:23:17;99087.59;;;21.13;90.89
55538;BME280;41383;51.418;7.286;2023-07-28T10:25:45;99076.13;;;21.14;90.45
55538;BME280;41383;51.418;7.286;2023-07-28T10:28:36;99091.00;;;21.22;90.13
55538;BME280;41383;51.418;7.286;2023-07-28T10:31:08;99089.34;;;21.05;89.90
55538;BME280;41383;51.418;7.286;2023-07-28T10:33:44;99082.09;;;21.00;90.47
55538;BME280;41383;51.418;7.286;2023-07-28T10:39:13;99096.16;;;20.95;89.87
55538;BME280;41383;51.418;7.286;2023-07-28T10:42:12;99088.19;;;20.93;89.72
55538;BME280;41383;51.418;7.286;2023-07-28T10:44:36;99096.25;;;21.11;89.16
55538;BME280;41383;51.418;7.286;2023-07-28T10:47:07;99099.94;;;21.15;88.89
55538;BME280;41383;51.418;7.286;2023-07-28T10:49:33;99097.72;;;21.21;88.96
55538;BME280;41383;51.418;7.286;2023-07-28T10:51:58;99099.84;;;21.28;88.57
55538;BME280;41383;51.418;7.286;2023-07-28T10:54:24;99099.88;;;21.44;88.68
55538;BME280;41383;51.418;7.286;2023-07-28T10:56:49;99096.13;;;21.52;87.62
55538;BME280;41383;51.418;7.286;2023-07-28T10:59:15;99096.22;;;21.40;88.06
55538;BME280;41383;51.418;7.286;2023-07-28T11:01:41;99097.31;;;21.51;88.52
55538;BME280;41383;51.418;7.286;2023-07-28T11:04:11;99089.91;;;21.55;87.83
55538;BME280;41383;51.418;7.286;2023-07-28T11:06:38;99091.19;;;21.29;88.38
55538;BME280;41383;51.418;7.286;2023-07-28T11:09:06;99094.16;;;21.08;89.58
55538;BME280;41383;51.418;7.286;2023-07-28T11:11:32;99096.19;;;21.23;89.19
55538;BME280;41383;51.418;7.286;2023-07-28T11:13:57;99095.69;;;21.50;88.37
55538;BME280;41383;51.418;7.286;2023-07-28T11:16:23;99087.56;;;21.57;87.75
55538;BME280;41383;51.418;7.286;2023-07-28T11:18:48;99091.53;;;21.89;87.33
55538;BME280;41383;51.418;7.286;2023-07-28T11:21:17;99099.41;;;22.03;86.61
55538;BME280;41383;51.418;7.286;2023-07-28T11:23:46;99090.63;;;22.17;85.48
55538;BME280;41383;51.418;7.286;2023-07-28T11:26:11;99102.41;;;22.30;84.44
55538;BME280;41383;51.418;7.286;2023-07-28T11:28:38;99096.00;;;22.10;83.97
55538;BME280;41383;51.418;7.286;2023-07-28T11:31:03;99099.97;;;22.09;83.34
55538;BME280;41383;51.418;7.286;2023-07-28T11:33:28;99097.91;;;21.89;84.02
55538;BME280;41383;51.418;7.286;2023-07-28T11:35:54;99100.41;;;21.95;84.49
55538;BME280;41383;51.418;7.286;2023-07-28T11:38:20;99098.34;;;21.91;84.74
55538;BME280;41383;51.418;7.286;2023-07-28T11:40:45;99097.28;;;21.96;84.47
55538;BME280;41383;51.418;7.286;2023-07-28T11:43:11;99098.34;;;22.08;84.37
55538;BME280;41383;51.418;7.286;2023-07-28T11:45:36;99095.00;;;22.18;83.84
55538;BME280;41383;51.418;7.286;2023-07-28T11:48:04;99094.56;;;22.16;83.20
55538;BME280;41383;51.418;7.286;2023-07-28T11:50:35;99097.88;;;22.22;82.06
55538;BME280;41383;51.418;7.286;2023-07-28T11:53:02;99094.63;;;22.36;80.87
55538;BME280;41383;51.418;7.286;2023-07-28T11:55:28;99093.28;;;22.30;81.36
55538;BME280;41383;51.418;7.286;2023-07-28T11:57:54;99094.72;;;22.23;81.58
55538;BME280;41383;51.418;7.286;2023-07-28T12:00:28;99092.25;;;22.18;82.10
55538;BME280;41383;51.418;7.286;2023-07-28T12:05:28;99099.53;;;21.90;83.03
55538;BME280;41383;51.418;7.286;2023-07-28T12:07:54;99089.56;;;22.06;82.82
55538;BME280;41383;51.418;7.286;2023-07-28T12:10:19;99096.63;;;22.03;82.49
55538;BME280;41383;51.418;7.286;2023-07-28T12:12:46;99094.72;;;22.23;82.14
55538;BME280;41383;51.418;7.286;2023-07-28T12:15:26;99089.34;;;22.31;81.56
55538;BME280;41383;51.418;7.286;2023-07-28T12:18:11;99083.94;;;22.38;80.84
55538;BME280;41383;51.418;7.286;2023-07-28T12:20:43;99086.16;;;22.48;81.02
55538;BME280;41383;51.418;7.286;2023-07-28T12:23:19;99089.69;;;22.45;80.78
55538;BME280;41383;51.418;7.286;2023-07-28T12:25:45;99085.41;;;22.32;81.10
55538;BME280;41383;51.418;7.286;2023-07-28T12:28:10;99083.00;;;22.30;81.53
55538;BME280;41383;51.418;7.286;2023-07-28T12:30:36;99081.41;;;22.29;81.44
55538;BME280;41383;51.418;7.286;2023-07-28T12:33:02;99088.47;;;22.26;81.91
55538;BME280;41383;51.418;7.286;2023-07-28T12:35:28;99090.19;;;22.15;82.26
55538;BME280;41383;51.418;7.286;2023-07-28T12:38:00;99076.31;;;21.99;82.08
55538;BME280;41383;51.418;7.286;2023-07-28T12:40:27;99088.97;;;21.96;82.55
55538;BME280;41383;51.418;7.286;2023-07-28T12:42:54;99083.66;;;21.91;82.96
55538;BME280;41383;51.418;7.286;2023-07-28T12:45:20;99089.31;;;21.95;82.97
55538;BME280;41383;51.418;7.286;2023-07-28T12:47:46;99095.03;;;22.02;83.89
55538;BME280;41383;51.418;7.286;2023-07-28T12:50:11;99095.31;;;22.13;84.41
55538;BME280;41383;51.418;7.286;2023-07-28T12:52:36;99087.25;;;22.08;84.82
55538;BME280;41383;51.418;7.286;2023-07-28T12:55:02;99101.09;;;22.24;84.85
55538;BME280;41383;51.418;7.286;2023-07-28T12:57:27;99087.84;;;22.69;84.42
55538;BME280;41383;51.418;7.286;2023-07-28T12:59:53;99095.47;;;22.92;84.00